createdAt,value
2017-12-06T00:00:20.946Z,-0.10
2017-12-06T00:02:52.010Z,-0.20
2017-12-06T00:05:23.480Z,-0.20
2017-12-06T00:07:55.604Z,-0.20
2017-12-06T00:10:26.832Z,-0.20
2017-12-06T00:13:02.174Z,-0.20
2017-12-06T00:15:48.887Z,-0.30
2017-12-06T00:18:20.952Z,-0.30
2017-12-06T00:20:52.289Z,-0.30
2017-12-06T00:23:25.031Z,-0.30
2017-12-06T00:25:56.822Z,-0.10
2017-12-06T00:28:28.680Z,-0.20
2017-12-06T00:30:59.892Z,-0.20
2017-12-06T00:33:31.928Z,-0.10
2017-12-06T00:36:03.287Z,-0.20
2017-12-06T00:38:35.119Z,-0.10
2017-12-06T00:41:06.114Z,-0.10
2017-12-06T00:43:37.959Z,-0.20
2017-12-06T00:46:09.025Z,-0.20
2017-12-06T00:48:39.978Z,-0.20
2017-12-06T00:51:11.377Z,-0.20
2017-12-06T00:53:42.338Z,-0.30
2017-12-06T00:56:13.283Z,-0.30
2017-12-06T00:58:45.293Z,-0.20
2017-12-06T01:01:16.873Z,-0.20
2017-12-06T01:03:49.763Z,-0.20
2017-12-06T01:06:21.797Z,-0.20
2017-12-06T01:08:52.810Z,-0.20
2017-12-06T01:11:23.798Z,-0.10
2017-12-06T01:13:54.843Z,-0.20
2017-12-06T01:16:26.783Z,-0.30
2017-12-06T01:18:57.717Z,-0.20
2017-12-06T01:21:28.585Z,-0.20
2017-12-06T01:24:00.162Z,-0.20
2017-12-06T01:26:31.931Z,-0.20
2017-12-06T01:29:03.441Z,-0.20
2017-12-06T01:31:35.051Z,-0.20
2017-12-06T01:34:07.341Z,-0.20
2017-12-06T01:36:39.749Z,-0.20
2017-12-06T01:39:12.898Z,-0.10
2017-12-06T01:41:44.947Z,-0.10
2017-12-06T01:44:16.966Z,-0.10
2017-12-06T01:46:50.362Z,-0.20
2017-12-06T01:49:21.953Z,-0.20
2017-12-06T01:51:53.554Z,-0.10
2017-12-06T01:54:25.514Z,-0.20
2017-12-06T01:56:57.697Z,-0.10
2017-12-06T01:59:29.583Z,0.00
2017-12-06T02:02:01.974Z,0.20
2017-12-06T02:04:33.797Z,0.20
2017-12-06T02:07:07.113Z,0.30
2017-12-06T02:09:39.867Z,0.30
2017-12-06T02:12:11.515Z,0.20
2017-12-06T02:14:42.827Z,0.30
2017-12-06T02:17:15.117Z,0.30
2017-12-06T02:19:46.111Z,0.30
2017-12-06T02:22:17.390Z,0.40
2017-12-06T02:24:48.396Z,0.40
2017-12-06T02:27:19.502Z,0.50
2017-12-06T02:29:50.923Z,0.60
2017-12-06T02:32:22.141Z,0.60
2017-12-06T02:34:53.863Z,0.60
2017-12-06T02:37:26.189Z,0.70
2017-12-06T02:40:06.926Z,0.70
2017-12-06T02:45:25.411Z,0.70
2017-12-06T02:47:57.423Z,0.80
2017-12-06T02:50:28.672Z,0.80
2017-12-06T02:53:01.302Z,0.80
2017-12-06T02:55:32.854Z,0.80
2017-12-06T02:58:03.855Z,0.90
2017-12-06T03:00:35.754Z,0.90
2017-12-06T03:03:07.222Z,0.90
2017-12-06T03:05:38.988Z,0.80
2017-12-06T03:08:09.995Z,0.70
2017-12-06T03:10:40.993Z,0.80
2017-12-06T03:13:12.255Z,0.80
2017-12-06T03:15:44.002Z,1.00
2017-12-06T03:18:15.515Z,1.00
2017-12-06T03:20:46.987Z,0.90
2017-12-06T03:23:18.643Z,0.70
2017-12-06T03:25:50.664Z,0.70
2017-12-06T03:28:21.970Z,0.80
2017-12-06T03:30:53.674Z,0.80
2017-12-06T03:33:24.773Z,0.70
2017-12-06T03:35:57.655Z,0.80
2017-12-06T03:38:29.939Z,0.80
2017-12-06T03:41:01.359Z,0.80
2017-12-06T03:43:33.073Z,1.00
2017-12-06T03:46:04.895Z,1.10
2017-12-06T03:48:36.738Z,1.10
2017-12-06T03:51:08.748Z,1.00
2017-12-06T03:53:40.035Z,1.20
2017-12-06T03:56:11.358Z,1.30
2017-12-06T03:58:43.596Z,1.20
2017-12-06T04:01:16.501Z,1.30
2017-12-06T04:03:48.215Z,1.30
2017-12-06T04:06:20.902Z,1.40
2017-12-06T04:08:53.186Z,1.50
2017-12-06T04:11:24.903Z,1.60
2017-12-06T04:13:56.169Z,1.50
2017-12-06T04:16:27.716Z,1.30
2017-12-06T04:18:58.735Z,1.40
2017-12-06T04:21:31.738Z,1.30
2017-12-06T04:24:02.639Z,1.40
2017-12-06T04:26:34.008Z,1.30
2017-12-06T04:29:06.859Z,1.20
2017-12-06T04:31:39.104Z,1.20
2017-12-06T04:34:10.805Z,1.30
2017-12-06T04:36:42.953Z,1.40
2017-12-06T04:39:14.215Z,1.40
2017-12-06T04:41:45.217Z,1.30
2017-12-06T04:44:18.180Z,1.50
2017-12-06T04:46:49.081Z,1.50
2017-12-06T04:49:20.148Z,1.50
2017-12-06T04:51:51.339Z,1.50
2017-12-06T04:54:23.008Z,1.70
2017-12-06T04:56:54.192Z,1.70
2017-12-06T04:59:25.150Z,1.50
2017-12-06T05:01:56.115Z,1.50
2017-12-06T05:04:28.132Z,1.60
2017-12-06T05:06:59.070Z,1.60
2017-12-06T05:09:30.057Z,1.70
2017-12-06T05:12:01.762Z,1.70
2017-12-06T05:14:32.724Z,1.70
2017-12-06T05:17:04.920Z,1.70
2017-12-06T05:19:36.843Z,1.70
2017-12-06T05:22:08.275Z,1.70
2017-12-06T05:24:39.341Z,1.80
2017-12-06T05:27:10.272Z,1.70
2017-12-06T05:29:43.146Z,1.70
2017-12-06T05:32:14.827Z,1.50
2017-12-06T05:34:46.582Z,1.50
2017-12-06T05:37:17.554Z,1.50
2017-12-06T05:39:49.249Z,1.40
2017-12-06T05:42:20.946Z,1.40
2017-12-06T05:44:53.061Z,1.30
2017-12-06T05:47:24.108Z,1.30
2017-12-06T05:49:55.127Z,1.30
2017-12-06T05:52:26.098Z,1.40
2017-12-06T05:54:57.092Z,1.30
2017-12-06T05:57:28.814Z,1.20
2017-12-06T05:59:59.808Z,1.20
2017-12-06T06:02:30.835Z,1.20
2017-12-06T06:05:01.799Z,1.40
2017-12-06T06:07:32.807Z,1.40
2017-12-06T06:10:04.139Z,1.60
2017-12-06T06:12:35.907Z,1.70
2017-12-06T06:15:07.909Z,1.80
2017-12-06T06:17:38.926Z,1.70
2017-12-06T06:20:10.864Z,1.90
2017-12-06T06:22:42.330Z,1.80
2017-12-06T06:25:14.043Z,1.80
2017-12-06T06:27:45.346Z,1.70
2017-12-06T06:30:17.142Z,1.80
2017-12-06T06:32:48.449Z,1.80
2017-12-06T06:35:19.485Z,1.70
2017-12-06T06:37:51.205Z,1.80
2017-12-06T06:40:22.446Z,1.80
2017-12-06T06:42:53.506Z,1.90
2017-12-06T06:45:25.500Z,1.70
2017-12-06T06:47:56.513Z,1.70
2017-12-06T06:50:28.216Z,1.90
2017-12-06T06:52:59.450Z,1.90
2017-12-06T06:55:30.389Z,1.90
2017-12-06T06:58:01.762Z,1.70
2017-12-06T07:00:33.777Z,1.90
2017-12-06T07:03:04.867Z,1.90
2017-12-06T07:05:36.171Z,1.90
2017-12-06T07:08:07.645Z,1.90
2017-12-06T07:10:38.729Z,1.90
2017-12-06T07:13:10.624Z,1.80
2017-12-06T07:15:41.833Z,1.80
2017-12-06T07:18:21.659Z,1.70
2017-12-06T07:20:53.855Z,1.90
2017-12-06T07:23:24.794Z,1.90
2017-12-06T07:25:55.748Z,1.90
2017-12-06T07:28:27.139Z,1.80
2017-12-06T07:30:58.297Z,1.80
2017-12-06T07:33:29.214Z,1.90
2017-12-06T07:36:00.466Z,2.00
2017-12-06T07:38:31.425Z,2.10
2017-12-06T07:41:02.446Z,2.00
2017-12-06T07:43:34.835Z,2.20
2017-12-06T07:46:05.851Z,2.10
2017-12-06T07:48:36.821Z,2.10
2017-12-06T07:51:08.720Z,2.30
2017-12-06T07:53:42.042Z,2.30
2017-12-06T07:56:13.107Z,2.30
2017-12-06T07:58:46.983Z,2.20
2017-12-06T08:01:18.670Z,2.30
2017-12-06T08:03:49.855Z,2.30
2017-12-06T08:06:21.647Z,2.50
2017-12-06T08:08:52.601Z,2.50
2017-12-06T08:11:23.876Z,2.50
2017-12-06T08:13:54.804Z,2.50
2017-12-06T08:16:26.005Z,2.60
2017-12-06T08:18:57.030Z,2.60
2017-12-06T08:21:28.734Z,2.80
2017-12-06T08:24:00.033Z,2.80
2017-12-06T08:26:31.884Z,2.40
2017-12-06T08:29:02.908Z,2.40
2017-12-06T08:31:34.202Z,2.40
2017-12-06T08:34:05.957Z,2.50
2017-12-06T08:36:37.499Z,2.50
2017-12-06T08:39:09.058Z,2.60
2017-12-06T08:41:40.270Z,2.90
2017-12-06T08:44:11.238Z,2.90
2017-12-06T08:46:42.977Z,3.10
2017-12-06T08:49:14.990Z,3.10
2017-12-06T08:51:45.978Z,3.10
2017-12-06T08:54:17.251Z,3.20
2017-12-06T08:56:48.890Z,3.10
2017-12-06T08:59:19.922Z,3.10
2017-12-06T09:01:52.391Z,2.90
2017-12-06T09:04:23.423Z,2.80
2017-12-06T09:06:55.153Z,2.90
2017-12-06T09:09:26.024Z,2.90
2017-12-06T09:11:57.024Z,3.00
2017-12-06T09:16:44.047Z,3.10
2017-12-06T09:19:15.065Z,2.70
2017-12-06T09:21:47.071Z,3.10
2017-12-06T09:24:18.102Z,3.10
2017-12-06T09:26:48.999Z,3.30
2017-12-06T09:29:20.264Z,3.40
2017-12-06T09:31:51.200Z,3.50
2017-12-06T09:34:22.361Z,3.30
2017-12-06T09:36:53.856Z,3.10
2017-12-06T09:39:24.885Z,3.20
2017-12-06T09:41:56.903Z,3.00
2017-12-06T09:44:28.931Z,2.90
2017-12-06T09:47:00.608Z,2.80
2017-12-06T09:49:32.177Z,2.80
2017-12-06T09:52:03.544Z,2.80
2017-12-06T09:54:34.542Z,2.90
2017-12-06T09:57:06.541Z,3.10
2017-12-06T09:59:37.706Z,3.10
2017-12-06T10:02:08.641Z,3.20
2017-12-06T10:04:39.926Z,3.20
2017-12-06T10:07:11.054Z,3.20
2017-12-06T10:09:42.180Z,3.20
2017-12-06T10:12:13.192Z,3.10
2017-12-06T10:14:44.348Z,3.60
2017-12-06T10:17:15.830Z,3.70
2017-12-06T10:19:47.528Z,3.80
2017-12-06T10:22:18.577Z,3.90
2017-12-06T10:24:49.634Z,3.50
2017-12-06T10:27:21.087Z,3.50
2017-12-06T10:29:52.385Z,3.30
2017-12-06T10:32:24.206Z,3.10
2017-12-06T10:34:55.839Z,3.30
2017-12-06T10:37:27.488Z,3.50
2017-12-06T10:39:58.517Z,3.50
2017-12-06T10:42:30.620Z,3.60
2017-12-06T10:45:01.711Z,3.70
2017-12-06T10:47:32.815Z,3.80
2017-12-06T10:50:03.775Z,3.70
2017-12-06T10:52:34.748Z,4.00
2017-12-06T10:55:05.756Z,3.90
2017-12-06T10:57:37.228Z,4.40
2017-12-06T11:00:08.250Z,4.40
2017-12-06T11:02:39.467Z,4.50
2017-12-06T11:05:10.584Z,4.40
2017-12-06T11:07:41.712Z,4.40
2017-12-06T11:10:13.353Z,4.80
2017-12-06T11:12:44.665Z,4.70
2017-12-06T11:15:15.695Z,4.80
2017-12-06T11:17:46.592Z,4.90
2017-12-06T11:20:17.801Z,5.20
2017-12-06T11:22:49.046Z,5.30
2017-12-06T11:25:22.255Z,5.30
2017-12-06T11:27:53.358Z,5.30
2017-12-06T11:30:24.296Z,5.30
2017-12-06T11:32:55.621Z,5.30
2017-12-06T11:35:26.784Z,5.30
2017-12-06T11:37:58.038Z,5.40
2017-12-06T11:40:29.186Z,5.30
2017-12-06T11:43:00.254Z,5.10
2017-12-06T11:45:31.544Z,5.00
2017-12-06T11:48:02.563Z,4.90
2017-12-06T11:50:33.687Z,4.80
2017-12-06T11:53:05.711Z,4.70
2017-12-06T11:55:36.682Z,4.70
2017-12-06T11:59:08.976Z,4.60
2017-12-06T12:01:40.801Z,4.30
2017-12-06T12:04:12.025Z,4.30
2017-12-06T12:06:44.310Z,4.20
2017-12-06T12:09:15.254Z,4.20
2017-12-06T12:11:47.561Z,4.10
2017-12-06T12:14:18.658Z,4.10
2017-12-06T12:16:49.683Z,4.10
2017-12-06T12:19:21.662Z,4.10
2017-12-06T12:21:52.835Z,4.20
2017-12-06T12:24:24.635Z,4.40
2017-12-06T12:26:55.966Z,4.40
2017-12-06T12:29:27.644Z,4.50
2017-12-06T12:31:58.906Z,4.50
2017-12-06T12:34:29.885Z,4.40
2017-12-06T12:37:00.891Z,4.40
2017-12-06T12:39:32.265Z,4.40
2017-12-06T12:42:04.241Z,4.40
2017-12-06T12:44:35.518Z,4.40
2017-12-06T12:47:06.712Z,4.40
2017-12-06T12:49:38.765Z,4.30
2017-12-06T12:52:10.955Z,4.30
2017-12-06T12:54:42.029Z,4.30
2017-12-06T12:57:13.320Z,4.30
2017-12-06T12:59:45.136Z,4.40
2017-12-06T13:02:16.272Z,4.40
2017-12-06T13:04:47.367Z,4.40
2017-12-06T13:07:18.604Z,4.50
2017-12-06T13:09:50.688Z,4.50
2017-12-06T13:12:22.512Z,4.60
2017-12-06T13:14:53.710Z,4.60
2017-12-06T13:17:24.691Z,4.70
2017-12-06T13:19:56.068Z,4.70
2017-12-06T13:22:27.891Z,4.70
2017-12-06T13:25:00.019Z,4.70
2017-12-06T13:27:31.130Z,4.70
2017-12-06T13:30:02.193Z,4.70
2017-12-06T13:32:34.043Z,4.60
2017-12-06T13:35:06.304Z,4.60
2017-12-06T13:37:38.769Z,4.60
2017-12-06T13:40:10.110Z,4.50
2017-12-06T13:42:41.139Z,4.50
2017-12-06T13:45:12.933Z,4.40
2017-12-06T13:47:44.373Z,4.40
2017-12-06T13:50:16.445Z,4.50
2017-12-06T13:52:47.659Z,4.50
2017-12-06T13:55:18.786Z,4.50
2017-12-06T13:57:49.943Z,4.50
2017-12-06T14:00:21.220Z,4.40
2017-12-06T14:02:52.263Z,4.30
2017-12-06T14:05:23.554Z,4.20
2017-12-06T14:07:55.179Z,4.00
2017-12-06T14:10:26.577Z,4.10
2017-12-06T14:12:57.564Z,4.20
2017-12-06T14:15:29.143Z,4.20
2017-12-06T14:18:00.348Z,4.20
2017-12-06T14:20:31.572Z,4.20
2017-12-06T14:23:04.599Z,4.20
2017-12-06T14:25:35.639Z,4.10
2017-12-06T14:28:07.522Z,3.90
2017-12-06T14:30:38.571Z,3.90
2017-12-06T14:33:20.965Z,3.80
2017-12-06T14:35:52.469Z,3.80
2017-12-06T14:38:23.799Z,3.70
2017-12-06T14:40:55.036Z,3.70
2017-12-06T14:43:26.272Z,3.60
2017-12-06T14:45:57.607Z,3.50
2017-12-06T14:48:29.007Z,3.50
2017-12-06T14:51:00.063Z,3.40
2017-12-06T14:53:31.862Z,3.10
2017-12-06T14:56:02.983Z,3.10
2017-12-06T14:58:34.130Z,3.30
2017-12-06T15:01:05.603Z,3.20
2017-12-06T15:03:36.756Z,3.00
2017-12-06T15:06:07.903Z,3.20
2017-12-06T15:08:39.286Z,3.20
2017-12-06T15:11:10.378Z,3.30
2017-12-06T15:13:41.467Z,3.40
2017-12-06T15:16:12.909Z,3.50
2017-12-06T15:18:44.759Z,3.30
2017-12-06T15:21:16.133Z,3.20
2017-12-06T15:23:47.199Z,3.20
2017-12-06T15:26:19.114Z,3.20
2017-12-06T15:28:50.399Z,3.20
2017-12-06T15:31:21.476Z,3.10
2017-12-06T15:33:52.802Z,2.90
2017-12-06T15:36:23.966Z,2.90
2017-12-06T15:39:10.642Z,2.70
2017-12-06T15:41:50.522Z,2.70
2017-12-06T15:44:22.260Z,2.90
2017-12-06T15:46:55.066Z,2.80
2017-12-06T15:49:26.328Z,2.70
2017-12-06T15:51:57.770Z,2.90
2017-12-06T15:54:29.004Z,2.90
2017-12-06T15:57:00.222Z,2.90
2017-12-06T15:59:32.733Z,2.90
2017-12-06T16:02:04.936Z,2.90
2017-12-06T16:04:37.051Z,3.00
2017-12-06T16:07:08.644Z,3.00
2017-12-06T16:09:39.811Z,3.10
2017-12-06T16:12:11.330Z,3.10
2017-12-06T16:14:43.534Z,2.90
2017-12-06T16:17:14.778Z,2.90
2017-12-06T16:19:45.938Z,3.00
2017-12-06T16:22:17.711Z,3.10
2017-12-06T16:24:48.904Z,2.90
2017-12-06T16:27:20.127Z,2.70
2017-12-06T16:29:51.499Z,2.80
2017-12-06T16:32:23.426Z,2.80
2017-12-06T16:35:03.001Z,2.80
2017-12-06T16:37:34.795Z,2.60
2017-12-06T16:40:06.534Z,2.80
2017-12-06T16:42:37.854Z,2.90
2017-12-06T16:45:08.989Z,3.00
2017-12-06T16:47:40.621Z,3.10
2017-12-06T16:50:11.745Z,3.00
2017-12-06T16:52:43.845Z,2.90
2017-12-06T16:55:14.932Z,2.80
2017-12-06T16:57:46.679Z,2.80
2017-12-06T17:00:17.855Z,2.80
2017-12-06T17:02:49.356Z,2.90
2017-12-06T17:05:20.846Z,2.90
2017-12-06T17:07:53.333Z,2.80
2017-12-06T17:10:24.427Z,2.80
2017-12-06T17:12:56.644Z,2.90
2017-12-06T17:15:28.502Z,2.90
2017-12-06T17:17:59.728Z,3.00
2017-12-06T17:20:30.986Z,2.90
2017-12-06T17:23:02.816Z,2.80
2017-12-06T17:25:33.983Z,2.80
2017-12-06T17:28:06.621Z,2.90
2017-12-06T17:31:46.105Z,2.90
2017-12-06T17:34:17.635Z,2.60
2017-12-06T17:36:48.823Z,2.60
2017-12-06T17:39:20.991Z,2.60
2017-12-06T17:41:52.510Z,2.60
2017-12-06T17:44:23.897Z,2.70
2017-12-06T17:46:55.048Z,2.60
2017-12-06T17:49:26.468Z,2.60
2017-12-06T17:51:57.674Z,2.60
2017-12-06T17:54:28.694Z,2.70
2017-12-06T17:56:59.999Z,2.70
2017-12-06T17:59:31.457Z,2.80
2017-12-06T18:02:03.289Z,2.90
2017-12-06T18:04:34.794Z,2.90
2017-12-06T18:07:06.662Z,2.60
2017-12-06T18:09:38.863Z,2.60
2017-12-06T18:12:10.108Z,2.60
2017-12-06T18:14:41.229Z,2.40
2017-12-06T18:17:12.526Z,2.50
2017-12-06T18:19:43.674Z,2.60
2017-12-06T18:22:15.089Z,2.30
2017-12-06T18:24:46.515Z,2.30
2017-12-06T18:27:17.498Z,2.50
2017-12-06T18:29:48.766Z,2.50
2017-12-06T18:32:20.090Z,2.50
2017-12-06T18:34:51.102Z,2.50
2017-12-06T18:37:22.976Z,2.50
2017-12-06T18:39:54.360Z,2.50
2017-12-06T18:42:26.240Z,2.40
2017-12-06T18:44:57.348Z,2.40
2017-12-06T18:47:28.444Z,2.40
2017-12-06T18:50:00.176Z,2.50
2017-12-06T18:52:31.509Z,2.50
2017-12-06T18:55:02.698Z,2.40
2017-12-06T18:57:34.877Z,2.30
2017-12-06T19:00:05.683Z,2.30
2017-12-06T19:02:37.086Z,2.40
2017-12-06T19:05:08.078Z,2.40
2017-12-06T19:07:39.490Z,2.30
2017-12-06T19:10:11.316Z,2.20
2017-12-06T19:12:42.379Z,2.20
2017-12-06T19:15:13.591Z,2.10
2017-12-06T19:17:44.783Z,2.20
2017-12-06T19:20:15.887Z,2.00
2017-12-06T19:22:47.878Z,2.00
2017-12-06T19:25:19.085Z,2.10
2017-12-06T19:27:50.257Z,2.10
2017-12-06T19:30:21.660Z,1.90
2017-12-06T19:32:53.680Z,1.90
2017-12-06T19:35:25.299Z,1.90
2017-12-06T19:37:57.883Z,2.00
2017-12-06T19:40:30.427Z,1.90
2017-12-06T19:43:02.379Z,1.80
2017-12-06T19:45:34.390Z,1.80
2017-12-06T19:48:05.848Z,1.70
2017-12-06T19:50:37.256Z,1.60
2017-12-06T19:54:32.827Z,1.60
2017-12-06T19:57:03.946Z,1.60
2017-12-06T19:59:35.273Z,1.60
2017-12-06T20:02:07.293Z,1.60
2017-12-06T20:04:39.217Z,1.50
2017-12-06T20:07:11.559Z,1.50
2017-12-06T20:09:42.655Z,1.40
2017-12-06T20:12:15.290Z,1.30
2017-12-06T20:14:47.642Z,1.10
2017-12-06T20:17:19.748Z,1.20
2017-12-06T20:19:51.160Z,1.20
2017-12-06T20:22:23.064Z,1.10
2017-12-06T20:24:54.201Z,1.10
2017-12-06T20:27:25.437Z,1.00
2017-12-06T20:29:56.594Z,0.80
2017-12-06T20:32:28.725Z,0.80
2017-12-06T20:35:00.575Z,0.70
2017-12-06T20:37:31.783Z,0.50
2017-12-06T20:40:02.823Z,0.40
2017-12-06T20:42:35.891Z,0.30
2017-12-06T20:45:07.336Z,0.20
2017-12-06T20:47:39.465Z,0.30
2017-12-06T20:50:11.582Z,0.40
2017-12-06T20:52:43.420Z,0.30
2017-12-06T20:55:14.580Z,0.30
2017-12-06T20:57:45.831Z,0.30
2017-12-06T21:00:18.057Z,0.10
2017-12-06T21:02:49.511Z,-0.10
2017-12-06T21:05:22.623Z,-0.10
2017-12-06T21:07:54.016Z,-0.20
2017-12-06T21:10:27.965Z,-0.20
2017-12-06T21:12:59.902Z,-0.10
2017-12-06T21:15:31.074Z,0.00
2017-12-06T21:18:02.218Z,-0.10
2017-12-06T21:20:34.142Z,-0.10
2017-12-06T21:23:05.524Z,-0.20
2017-12-06T21:25:37.189Z,-0.20
2017-12-06T21:28:08.278Z,-0.10
2017-12-06T21:30:39.351Z,-0.10
2017-12-06T21:33:10.632Z,0.00
2017-12-06T21:35:41.830Z,0.00
2017-12-06T21:38:12.923Z,0.00
2017-12-06T21:40:44.426Z,0.00
2017-12-06T21:43:16.642Z,0.00
2017-12-06T21:45:47.742Z,0.00
2017-12-06T21:48:19.110Z,-0.20
2017-12-06T21:50:50.900Z,-0.50
2017-12-06T21:53:22.010Z,-0.50
2017-12-06T21:55:53.755Z,-0.40
2017-12-06T21:58:24.748Z,-0.40
2017-12-06T22:00:55.702Z,-0.40
2017-12-06T22:03:26.740Z,-0.30
2017-12-06T22:05:57.764Z,-0.40
2017-12-06T22:08:28.792Z,-0.40
2017-12-06T22:11:00.024Z,-0.40
2017-12-06T22:13:32.074Z,-0.60
2017-12-06T22:16:03.189Z,-0.60
2017-12-06T22:18:34.077Z,-0.60
2017-12-06T22:21:05.399Z,-0.50
2017-12-06T22:23:36.524Z,-0.50
2017-12-06T22:26:08.567Z,-0.60
2017-12-06T22:28:39.748Z,-0.60
2017-12-06T22:31:11.398Z,-0.60
2017-12-06T22:33:42.451Z,-0.60
2017-12-06T22:36:14.415Z,-0.70
2017-12-06T22:38:45.479Z,-0.80
2017-12-06T22:41:16.522Z,-0.70
2017-12-06T22:43:48.180Z,-0.70
2017-12-06T22:46:19.870Z,-0.80
2017-12-06T22:48:51.329Z,-0.80
2017-12-06T22:51:23.132Z,-0.90
2017-12-06T22:53:54.805Z,-0.80
2017-12-06T22:56:26.502Z,-0.90
2017-12-06T22:58:58.023Z,-0.90
2017-12-06T23:01:29.034Z,-0.90
2017-12-06T23:03:59.970Z,-0.80
2017-12-06T23:06:31.767Z,-1.00
2017-12-06T23:09:02.757Z,-1.00
2017-12-06T23:11:34.467Z,-0.90
2017-12-06T23:14:06.571Z,-1.00
2017-12-06T23:16:38.007Z,-1.00
2017-12-06T23:19:09.335Z,-0.90
2017-12-06T23:21:40.623Z,-0.90
2017-12-06T23:24:12.379Z,-0.90
2017-12-06T23:26:44.183Z,-0.90
2017-12-06T23:29:15.895Z,-1.00
2017-12-06T23:31:46.975Z,-1.10
2017-12-06T23:34:18.027Z,-1.10
2017-12-06T23:36:49.163Z,-1.10
2017-12-06T23:39:20.511Z,-1.20
2017-12-06T23:41:52.365Z,-1.20
2017-12-06T23:44:23.818Z,-1.20
2017-12-06T23:46:55.169Z,-1.20
2017-12-06T23:49:26.764Z,-1.10
2017-12-06T23:51:58.369Z,-1.10
2017-12-06T23:54:29.894Z,-1.10
2017-12-06T23:57:01.610Z,-1.20
2017-12-06T23:59:33.116Z,-1.10
